sensor_id;sensor_type;location;lat;lon;timestamp;temperature;humidity
47779;DHT22;33538;48.432;11.350;2023-11-19T00:01:57;6.60;99.90
47779;DHT22;33538;48.432;11.350;2023-11-19T00:04:24;6.50;99.90
47779;DHT22;33538;48.432;11.350;2023-11-19T00:06:51;6.60;99.90
47779;DHT22;33538;48.432;11.350;2023-11-19T00:09:18;6.60;99.90
47779;DHT22;33538;48.432;11.350;2023-11-19T00:11:45;6.60;99.90
47779;DHT22;33538;48.432;11.350;2023-11-19T00:14:20;6.60;99.90
47779;DHT22;33538;48.432;11.350;2023-11-19T00:16:48;6.60;99.90
47779;DHT22;33538;48.432;11.350;2023-11-19T00:19:15;6.60;99.90
47779;DHT22;33538;48.432;11.350;2023-11-19T00:21:42;6.70;99.90
47779;DHT22;33538;48.432;11.350;2023-11-19T00:24:09;6.70;99.90
47779;DHT22;33538;48.432;11.350;2023-11-19T00:26:35;6.70;99.90
47779;DHT22;33538;48.432;11.350;2023-11-19T00:29:02;6.70;99.90
47779;DHT22;33538;48.432;11.350;2023-11-19T00:31:29;6.70;99.90
47779;DHT22;33538;48.432;11.350;2023-11-19T00:33:57;6.70;99.90
47779;DHT22;33538;48.432;11.350;2023-11-19T00:36:24;6.70;99.90
47779;DHT22;33538;48.432;11.350;2023-11-19T00:38:51;6.70;99.90
47779;DHT22;33538;48.432;11.350;2023-11-19T00:41:18;6.70;99.90
47779;DHT22;33538;48.432;11.350;2023-11-19T00:43:45;6.70;99.90
47779;DHT22;33538;48.432;11.350;2023-11-19T00:46:12;6.70;99.90
47779;DHT22;33538;48.432;11.350;2023-11-19T00:48:39;6.70;99.90
47779;DHT22;33538;48.432;11.350;2023-11-19T00:51:07;6.70;99.90
47779;DHT22;33538;48.432;11.350;2023-11-19T00:53:34;6.70;99.90
47779;DHT22;33538;48.432;11.350;2023-11-19T00:56:01;6.60;99.90
47779;DHT22;33538;48.432;11.350;2023-11-19T00:58:27;6.60;99.90
47779;DHT22;33538;48.432;11.350;2023-11-19T01:00:54;6.60;99.90
47779;DHT22;33538;48.432;11.350;2023-11-19T01:03:21;6.70;99.90
47779;DHT22;33538;48.432;11.350;2023-11-19T01:05:48;6.60;99.90
47779;DHT22;33538;48.432;11.350;2023-11-19T01:08:16;6.70;99.90
47779;DHT22;33538;48.432;11.350;2023-11-19T01:10:43;6.70;99.90
47779;DHT22;33538;48.432;11.350;2023-11-19T01:13:10;6.70;99.90
47779;DHT22;33538;48.432;11.350;2023-11-19T01:15:37;6.70;99.90
47779;DHT22;33538;48.432;11.350;2023-11-19T01:18:04;6.70;99.90
47779;DHT22;33538;48.432;11.350;2023-11-19T01:20:30;6.70;99.90
47779;DHT22;33538;48.432;11.350;2023-11-19T01:22:57;6.70;99.90
47779;DHT22;33538;48.432;11.350;2023-11-19T01:25:25;6.70;99.90
47779;DHT22;33538;48.432;11.350;2023-11-19T01:27:52;6.70;99.90
47779;DHT22;33538;48.432;11.350;2023-11-19T01:30:19;6.70;99.90
47779;DHT22;33538;48.432;11.350;2023-11-19T01:32:46;6.70;99.90
47779;DHT22;33538;48.432;11.350;2023-11-19T01:35:13;6.70;99.90
47779;DHT22;33538;48.432;11.350;2023-11-19T01:37:40;6.70;99.90
47779;DHT22;33538;48.432;11.350;2023-11-19T01:40:07;6.70;99.90
47779;DHT22;33538;48.432;11.350;2023-11-19T01:42:37;6.70;99.90
47779;DHT22;33538;48.432;11.350;2023-11-19T01:45:05;6.70;99.90
47779;DHT22;33538;48.432;11.350;2023-11-19T01:47:32;6.80;99.90
47779;DHT22;33538;48.432;11.350;2023-11-19T01:49:59;6.80;99.90
47779;DHT22;33538;48.432;11.350;2023-11-19T01:52:27;6.80;99.90
47779;DHT22;33538;48.432;11.350;2023-11-19T01:54:54;6.80;99.90
47779;DHT22;33538;48.432;11.350;2023-11-19T01:57:22;6.80;99.90
47779;DHT22;33538;48.432;11.350;2023-11-19T01:59:51;6.80;99.90
47779;DHT22;33538;48.432;11.350;2023-11-19T02:02:19;6.80;99.90
47779;DHT22;33538;48.432;11.350;2023-11-19T02:04:46;6.80;99.90
47779;DHT22;33538;48.432;11.350;2023-11-19T02:07:14;6.90;99.90
47779;DHT22;33538;48.432;11.350;2023-11-19T02:09:42;6.90;99.90
47779;DHT22;33538;48.432;11.350;2023-11-19T02:12:09;6.90;99.90
47779;DHT22;33538;48.432;11.350;2023-11-19T02:14:37;6.90;99.90
47779;DHT22;33538;48.432;11.350;2023-11-19T02:17:05;6.90;99.90
47779;DHT22;33538;48.432;11.350;2023-11-19T02:19:32;6.90;99.90
47779;DHT22;33538;48.432;11.350;2023-11-19T02:21:58;6.90;99.90
47779;DHT22;33538;48.432;11.350;2023-11-19T02:24:28;6.90;99.90
47779;DHT22;33538;48.432;11.350;2023-11-19T02:27:02;7.00;99.90
47779;DHT22;33538;48.432;11.350;2023-11-19T02:29:30;7.00;99.90
47779;DHT22;33538;48.432;11.350;2023-11-19T02:31:57;7.00;99.90
47779;DHT22;33538;48.432;11.350;2023-11-19T02:34:24;7.00;99.90
47779;DHT22;33538;48.432;11.350;2023-11-19T02:36:51;7.00;99.90
47779;DHT22;33538;48.432;11.350;2023-11-19T02:39:17;7.00;99.90
47779;DHT22;33538;48.432;11.350;2023-11-19T02:41:44;7.00;99.90
47779;DHT22;33538;48.432;11.350;2023-11-19T02:44:11;7.00;99.90
47779;DHT22;33538;48.432;11.350;2023-11-19T02:46:39;7.00;99.90
47779;DHT22;33538;48.432;11.350;2023-11-19T02:49:06;7.10;99.90
47779;DHT22;33538;48.432;11.350;2023-11-19T02:51:33;7.00;99.90
47779;DHT22;33538;48.432;11.350;2023-11-19T02:54:00;7.00;99.90
47779;DHT22;33538;48.432;11.350;2023-11-19T02:56:26;7.10;99.90
47779;DHT22;33538;48.432;11.350;2023-11-19T02:58:53;7.10;99.90
47779;DHT22;33538;48.432;11.350;2023-11-19T03:01:23;7.10;99.90
47779;DHT22;33538;48.432;11.350;2023-11-19T03:03:52;7.10;99.90
47779;DHT22;33538;48.432;11.350;2023-11-19T03:06:18;7.10;99.90
47779;DHT22;33538;48.432;11.350;2023-11-19T03:08:45;7.10;99.90
47779;DHT22;33538;48.432;11.350;2023-11-19T03:11:12;7.10;99.90
47779;DHT22;33538;48.432;11.350;2023-11-19T03:13:39;7.10;99.90
47779;DHT22;33538;48.432;11.350;2023-11-19T03:16:07;7.10;99.90
47779;DHT22;33538;48.432;11.350;2023-11-19T03:18:34;7.10;99.90
47779;DHT22;33538;48.432;11.350;2023-11-19T03:21:02;7.20;99.90
47779;DHT22;33538;48.432;11.350;2023-11-19T03:23:29;7.10;99.90
47779;DHT22;33538;48.432;11.350;2023-11-19T03:25:56;7.10;99.90
47779;DHT22;33538;48.432;11.350;2023-11-19T03:28:23;7.20;99.90
47779;DHT22;33538;48.432;11.350;2023-11-19T03:30:50;7.20;99.90
47779;DHT22;33538;48.432;11.350;2023-11-19T03:33:16;7.20;99.90
47779;DHT22;33538;48.432;11.350;2023-11-19T03:35:43;7.20;99.90
47779;DHT22;33538;48.432;11.350;2023-11-19T03:38:11;7.20;99.90
47779;DHT22;33538;48.432;11.350;2023-11-19T03:40:38;7.20;99.90
47779;DHT22;33538;48.432;11.350;2023-11-19T03:43:05;7.20;99.90
47779;DHT22;33538;48.432;11.350;2023-11-19T03:45:32;7.20;99.90
47779;DHT22;33538;48.432;11.350;2023-11-19T03:47:59;7.20;99.90
47779;DHT22;33538;48.432;11.350;2023-11-19T03:50:25;7.20;99.90
47779;DHT22;33538;48.432;11.350;2023-11-19T03:52:52;7.20;99.90
47779;DHT22;33538;48.432;11.350;2023-11-19T03:55:20;7.20;99.90
47779;DHT22;33538;48.432;11.350;2023-11-19T03:57:47;7.20;99.90
47779;DHT22;33538;48.432;11.350;2023-11-19T04:00:15;7.20;99.90
47779;DHT22;33538;48.432;11.350;2023-11-19T04:02:41;7.20;99.90
47779;DHT22;33538;48.432;11.350;2023-11-19T04:05:08;7.20;99.90
47779;DHT22;33538;48.432;11.350;2023-11-19T04:07:35;7.20;99.90
47779;DHT22;33538;48.432;11.350;2023-11-19T04:10:02;7.20;99.90
47779;DHT22;33538;48.432;11.350;2023-11-19T04:12:31;7.20;99.90
47779;DHT22;33538;48.432;11.350;2023-11-19T04:14:57;7.20;99.90
47779;DHT22;33538;48.432;11.350;2023-11-19T04:17:28;7.20;99.90
47779;DHT22;33538;48.432;11.350;2023-11-19T04:19:55;7.20;99.90
47779;DHT22;33538;48.432;11.350;2023-11-19T04:22:22;7.20;99.90
47779;DHT22;33538;48.432;11.350;2023-11-19T04:24:48;7.30;99.90
47779;DHT22;33538;48.432;11.350;2023-11-19T04:27:15;7.30;99.90
47779;DHT22;33538;48.432;11.350;2023-11-19T04:29:43;7.30;99.90
47779;DHT22;33538;48.432;11.350;2023-11-19T04:32:10;7.30;99.90
47779;DHT22;33538;48.432;11.350;2023-11-19T04:34:37;7.30;99.90
47779;DHT22;33538;48.432;11.350;2023-11-19T04:37:04;7.30;99.90
47779;DHT22;33538;48.432;11.350;2023-11-19T04:39:33;7.30;99.90
47779;DHT22;33538;48.432;11.350;2023-11-19T04:42:00;7.30;99.90
47779;DHT22;33538;48.432;11.350;2023-11-19T04:44:27;7.30;99.90
47779;DHT22;33538;48.432;11.350;2023-11-19T04:46:55;7.30;99.90
47779;DHT22;33538;48.432;11.350;2023-11-19T04:49:22;7.30;99.90
47779;DHT22;33538;48.432;11.350;2023-11-19T04:51:49;7.40;99.90
47779;DHT22;33538;48.432;11.350;2023-11-19T04:54:16;7.30;99.90
47779;DHT22;33538;48.432;11.350;2023-11-19T04:56:45;7.30;99.90
47779;DHT22;33538;48.432;11.350;2023-11-19T04:59:12;7.40;99.90
47779;DHT22;33538;48.432;11.350;2023-11-19T05:01:39;7.30;99.90
47779;DHT22;33538;48.432;11.350;2023-11-19T05:04:07;7.30;99.90
47779;DHT22;33538;48.432;11.350;2023-11-19T05:06:34;7.30;99.90
47779;DHT22;33538;48.432;11.350;2023-11-19T05:09:01;7.40;99.90
47779;DHT22;33538;48.432;11.350;2023-11-19T05:11:32;7.40;99.90
47779;DHT22;33538;48.432;11.350;2023-11-19T05:13:59;7.40;99.90
47779;DHT22;33538;48.432;11.350;2023-11-19T05:16:26;7.40;99.90
47779;DHT22;33538;48.432;11.350;2023-11-19T05:18:53;7.40;99.90
47779;DHT22;33538;48.432;11.350;2023-11-19T05:21:21;7.40;99.90
47779;DHT22;33538;48.432;11.350;2023-11-19T05:23:48;7.40;99.90
47779;DHT22;33538;48.432;11.350;2023-11-19T05:26:18;7.40;99.90
47779;DHT22;33538;48.432;11.350;2023-11-19T05:28:45;7.40;99.90
47779;DHT22;33538;48.432;11.350;2023-11-19T05:31:12;7.40;99.90
47779;DHT22;33538;48.432;11.350;2023-11-19T05:33:39;7.40;99.90
47779;DHT22;33538;48.432;11.350;2023-11-19T05:36:07;7.50;99.90
47779;DHT22;33538;48.432;11.350;2023-11-19T05:38:35;7.50;99.90
47779;DHT22;33538;48.432;11.350;2023-11-19T05:41:02;7.50;99.90
47779;DHT22;33538;48.432;11.350;2023-11-19T05:43:28;7.50;99.90
47779;DHT22;33538;48.432;11.350;2023-11-19T05:45:55;7.50;99.90
47779;DHT22;33538;48.432;11.350;2023-11-19T05:48:22;7.50;99.90
47779;DHT22;33538;48.432;11.350;2023-11-19T05:50:49;7.50;99.90
47779;DHT22;33538;48.432;11.350;2023-11-19T05:53:16;7.50;99.90
47779;DHT22;33538;48.432;11.350;2023-11-19T05:55:44;7.50;99.90
47779;DHT22;33538;48.432;11.350;2023-11-19T05:58:11;7.50;99.90
47779;DHT22;33538;48.432;11.350;2023-11-19T06:00:38;7.50;99.90
47779;DHT22;33538;48.432;11.350;2023-11-19T06:03:05;7.50;99.90
47779;DHT22;33538;48.432;11.350;2023-11-19T06:05:32;7.50;99.90
47779;DHT22;33538;48.432;11.350;2023-11-19T06:07:59;7.50;99.90
47779;DHT22;33538;48.432;11.350;2023-11-19T06:10:25;7.60;99.90
47779;DHT22;33538;48.432;11.350;2023-11-19T06:12:53;7.60;99.90
47779;DHT22;33538;48.432;11.350;2023-11-19T06:15:20;7.60;99.90
47779;DHT22;33538;48.432;11.350;2023-11-19T06:17:47;7.60;99.90
47779;DHT22;33538;48.432;11.350;2023-11-19T06:20:14;7.60;99.90
47779;DHT22;33538;48.432;11.350;2023-11-19T06:22:41;7.60;99.90
47779;DHT22;33538;48.432;11.350;2023-11-19T06:25:08;7.60;99.90
47779;DHT22;33538;48.432;11.350;2023-11-19T06:27:37;7.60;99.90
47779;DHT22;33538;48.432;11.350;2023-11-19T06:30:06;7.60;99.90
47779;DHT22;33538;48.432;11.350;2023-11-19T06:32:33;7.60;99.90
47779;DHT22;33538;48.432;11.350;2023-11-19T06:35:00;7.60;99.90
47779;DHT22;33538;48.432;11.350;2023-11-19T06:37:27;7.60;99.90
47779;DHT22;33538;48.432;11.350;2023-11-19T06:39:54;7.60;99.90
47779;DHT22;33538;48.432;11.350;2023-11-19T06:42:21;7.60;99.90
47779;DHT22;33538;48.432;11.350;2023-11-19T06:44:47;7.70;99.90
47779;DHT22;33538;48.432;11.350;2023-11-19T06:47:15;7.70;99.90
47779;DHT22;33538;48.432;11.350;2023-11-19T06:49:43;7.70;99.90
47779;DHT22;33538;48.432;11.350;2023-11-19T06:52:10;7.70;99.90
47779;DHT22;33538;48.432;11.350;2023-11-19T06:54:38;7.70;99.90
47779;DHT22;33538;48.432;11.350;2023-11-19T06:57:05;7.70;99.90
47779;DHT22;33538;48.432;11.350;2023-11-19T06:59:32;7.70;99.90
47779;DHT22;33538;48.432;11.350;2023-11-19T07:01:59;7.70;99.90
47779;DHT22;33538;48.432;11.350;2023-11-19T07:04:27;7.70;99.90
47779;DHT22;33538;48.432;11.350;2023-11-19T07:06:54;7.70;99.90
47779;DHT22;33538;48.432;11.350;2023-11-19T07:09:20;7.70;99.90
47779;DHT22;33538;48.432;11.350;2023-11-19T07:11:47;7.70;99.90
47779;DHT22;33538;48.432;11.350;2023-11-19T07:14:14;7.70;99.90
47779;DHT22;33538;48.432;11.350;2023-11-19T07:16:41;7.70;99.90
47779;DHT22;33538;48.432;11.350;2023-11-19T07:19:08;7.70;99.90
47779;DHT22;33538;48.432;11.350;2023-11-19T07:21:36;7.70;99.90
47779;DHT22;33538;48.432;11.350;2023-11-19T07:24:03;7.70;99.90
47779;DHT22;33538;48.432;11.350;2023-11-19T07:26:30;7.80;99.90
47779;DHT22;33538;48.432;11.350;2023-11-19T07:28:57;7.80;99.90
47779;DHT22;33538;48.432;11.350;2023-11-19T07:31:24;7.80;99.90
47779;DHT22;33538;48.432;11.350;2023-11-19T07:33:50;7.70;99.90
47779;DHT22;33538;48.432;11.350;2023-11-19T07:36:17;7.80;99.90
47779;DHT22;33538;48.432;11.350;2023-11-19T07:38:46;7.80;99.90
47779;DHT22;33538;48.432;11.350;2023-11-19T07:41:13;7.80;99.90
47779;DHT22;33538;48.432;11.350;2023-11-19T07:43:42;7.80;99.90
47779;DHT22;33538;48.432;11.350;2023-11-19T07:46:12;7.80;99.90
47779;DHT22;33538;48.432;11.350;2023-11-19T07:48:40;7.80;99.90
47779;DHT22;33538;48.432;11.350;2023-11-19T07:51:07;7.80;99.90
47779;DHT22;33538;48.432;11.350;2023-11-19T07:53:33;7.80;99.90
47779;DHT22;33538;48.432;11.350;2023-11-19T07:56:02;7.90;99.90
47779;DHT22;33538;48.432;11.350;2023-11-19T07:58:29;7.90;99.90
47779;DHT22;33538;48.432;11.350;2023-11-19T08:00:56;7.90;99.90
47779;DHT22;33538;48.432;11.350;2023-11-19T08:03:22;7.90;99.90
47779;DHT22;33538;48.432;11.350;2023-11-19T08:05:49;7.90;99.90
47779;DHT22;33538;48.432;11.350;2023-11-19T08:08:16;7.90;99.90
47779;DHT22;33538;48.432;11.350;2023-11-19T08:10:43;7.90;99.90
47779;DHT22;33538;48.432;11.350;2023-11-19T08:13:11;7.90;99.90
47779;DHT22;33538;48.432;11.350;2023-11-19T08:15:38;7.90;99.90
47779;DHT22;33538;48.432;11.350;2023-11-19T08:18:05;7.90;99.90
47779;DHT22;33538;48.432;11.350;2023-11-19T08:20:32;8.00;99.90
47779;DHT22;33538;48.432;11.350;2023-11-19T08:22:59;8.00;99.90
47779;DHT22;33538;48.432;11.350;2023-11-19T08:25:26;8.00;99.90
47779;DHT22;33538;48.432;11.350;2023-11-19T08:27:54;8.00;99.90
47779;DHT22;33538;48.432;11.350;2023-11-19T08:30:22;8.00;99.90
47779;DHT22;33538;48.432;11.350;2023-11-19T08:32:49;8.00;99.90
47779;DHT22;33538;48.432;11.350;2023-11-19T08:35:16;8.00;99.90
47779;DHT22;33538;48.432;11.350;2023-11-19T08:37:43;8.00;99.90
47779;DHT22;33538;48.432;11.350;2023-11-19T08:40:10;8.00;99.90
47779;DHT22;33538;48.432;11.350;2023-11-19T08:42:37;8.00;99.90
47779;DHT22;33538;48.432;11.350;2023-11-19T08:45:05;8.00;99.90
47779;DHT22;33538;48.432;11.350;2023-11-19T08:47:33;8.00;99.90
47779;DHT22;33538;48.432;11.350;2023-11-19T08:50:00;8.10;99.90
47779;DHT22;33538;48.432;11.350;2023-11-19T08:52:30;8.00;99.90
47779;DHT22;33538;48.432;11.350;2023-11-19T08:55:01;8.10;99.90
47779;DHT22;33538;48.432;11.350;2023-11-19T08:57:28;8.10;99.90
47779;DHT22;33538;48.432;11.350;2023-11-19T08:59:55;8.10;99.90
47779;DHT22;33538;48.432;11.350;2023-11-19T09:02:21;8.10;99.90
47779;DHT22;33538;48.432;11.350;2023-11-19T09:04:50;8.10;99.90
47779;DHT22;33538;48.432;11.350;2023-11-19T09:07:19;8.20;99.90
47779;DHT22;33538;48.432;11.350;2023-11-19T09:09:46;8.20;99.90
47779;DHT22;33538;48.432;11.350;2023-11-19T09:12:13;8.20;99.90
47779;DHT22;33538;48.432;11.350;2023-11-19T09:14:40;8.20;99.90
47779;DHT22;33538;48.432;11.350;2023-11-19T09:17:07;8.20;99.90
47779;DHT22;33538;48.432;11.350;2023-11-19T09:19:34;8.20;99.90
47779;DHT22;33538;48.432;11.350;2023-11-19T09:22:02;8.20;99.90
47779;DHT22;33538;48.432;11.350;2023-11-19T09:24:29;8.20;99.90
47779;DHT22;33538;48.432;11.350;2023-11-19T09:26:55;8.20;99.90
47779;DHT22;33538;48.432;11.350;2023-11-19T09:29:22;8.20;99.90
47779;DHT22;33538;48.432;11.350;2023-11-19T09:31:49;8.20;99.90
47779;DHT22;33538;48.432;11.350;2023-11-19T09:34:16;8.20;99.90
47779;DHT22;33538;48.432;11.350;2023-11-19T09:36:43;8.30;99.90
47779;DHT22;33538;48.432;11.350;2023-11-19T09:39:11;8.30;99.90
47779;DHT22;33538;48.432;11.350;2023-11-19T09:41:38;8.30;99.90
47779;DHT22;33538;48.432;11.350;2023-11-19T09:44:05;8.30;99.90
47779;DHT22;33538;48.432;11.350;2023-11-19T09:46:31;8.30;99.90
47779;DHT22;33538;48.432;11.350;2023-11-19T09:48:59;8.40;99.90
47779;DHT22;33538;48.432;11.350;2023-11-19T09:51:26;8.40;99.90
47779;DHT22;33538;48.432;11.350;2023-11-19T09:53:53;8.40;99.90
47779;DHT22;33538;48.432;11.350;2023-11-19T09:56:22;8.40;99.90
47779;DHT22;33538;48.432;11.350;2023-11-19T09:58:49;8.40;99.90
47779;DHT22;33538;48.432;11.350;2023-11-19T10:01:16;8.40;99.90
47779;DHT22;33538;48.432;11.350;2023-11-19T10:03:47;8.40;99.90
47779;DHT22;33538;48.432;11.350;2023-11-19T10:06:15;8.40;99.90
47779;DHT22;33538;48.432;11.350;2023-11-19T10:08:42;8.40;99.90
47779;DHT22;33538;48.432;11.350;2023-11-19T10:11:09;8.50;99.90
47779;DHT22;33538;48.432;11.350;2023-11-19T10:13:38;8.50;99.90
47779;DHT22;33538;48.432;11.350;2023-11-19T10:16:07;8.50;99.90
47779;DHT22;33538;48.432;11.350;2023-11-19T10:18:35;8.50;99.90
47779;DHT22;33538;48.432;11.350;2023-11-19T10:21:02;8.50;99.90
47779;DHT22;33538;48.432;11.350;2023-11-19T10:23:29;8.50;99.90
47779;DHT22;33538;48.432;11.350;2023-11-19T10:26:02;8.50;99.90
47779;DHT22;33538;48.432;11.350;2023-11-19T10:28:40;8.50;99.90
47779;DHT22;33538;48.432;11.350;2023-11-19T10:31:07;8.60;99.90
47779;DHT22;33538;48.432;11.350;2023-11-19T10:33:33;8.60;99.90
47779;DHT22;33538;48.432;11.350;2023-11-19T10:36:00;8.60;99.90
47779;DHT22;33538;48.432;11.350;2023-11-19T10:38:28;8.60;99.90
47779;DHT22;33538;48.432;11.350;2023-11-19T10:40:55;8.60;99.90
47779;DHT22;33538;48.432;11.350;2023-11-19T10:43:22;8.70;99.90
47779;DHT22;33538;48.432;11.350;2023-11-19T10:45:51;8.70;99.90
47779;DHT22;33538;48.432;11.350;2023-11-19T10:48:18;8.70;99.90
47779;DHT22;33538;48.432;11.350;2023-11-19T10:50:46;8.70;99.90
47779;DHT22;33538;48.432;11.350;2023-11-19T10:53:17;8.70;99.90
47779;DHT22;33538;48.432;11.350;2023-11-19T10:55:47;8.80;99.90
47779;DHT22;33538;48.432;11.350;2023-11-19T10:58:16;8.80;99.90
47779;DHT22;33538;48.432;11.350;2023-11-19T11:00:44;8.80;99.90
47779;DHT22;33538;48.432;11.350;2023-11-19T11:03:17;8.80;99.90
47779;DHT22;33538;48.432;11.350;2023-11-19T11:05:46;8.80;99.90
47779;DHT22;33538;48.432;11.350;2023-11-19T11:08:13;8.90;99.90
47779;DHT22;33538;48.432;11.350;2023-11-19T11:10:44;8.90;99.90
47779;DHT22;33538;48.432;11.350;2023-11-19T11:13:14;8.90;99.90
47779;DHT22;33538;48.432;11.350;2023-11-19T11:15:41;8.90;99.90
47779;DHT22;33538;48.432;11.350;2023-11-19T11:18:09;8.90;99.90
47779;DHT22;33538;48.432;11.350;2023-11-19T11:20:37;8.90;99.90
47779;DHT22;33538;48.432;11.350;2023-11-19T11:23:41;8.90;99.90
47779;DHT22;33538;48.432;11.350;2023-11-19T11:26:29;9.00;99.90
47779;DHT22;33538;48.432;11.350;2023-11-19T11:29:02;9.00;99.90
47779;DHT22;33538;48.432;11.350;2023-11-19T11:31:36;9.00;99.90
47779;DHT22;33538;48.432;11.350;2023-11-19T11:34:20;9.10;99.90
47779;DHT22;33538;48.432;11.350;2023-11-19T11:37:03;9.10;99.90
47779;DHT22;33538;48.432;11.350;2023-11-19T11:39:33;9.10;99.90
47779;DHT22;33538;48.432;11.350;2023-11-19T11:42:32;9.20;99.90
47779;DHT22;33538;48.432;11.350;2023-11-19T11:44:59;9.20;99.90
47779;DHT22;33538;48.432;11.350;2023-11-19T11:50:26;9.30;99.90
47779;DHT22;33538;48.432;11.350;2023-11-19T11:53:20;9.20;99.90
47779;DHT22;33538;48.432;11.350;2023-11-19T11:56:00;9.30;99.90
47779;DHT22;33538;48.432;11.350;2023-11-19T11:58:36;9.30;99.90
47779;DHT22;33538;48.432;11.350;2023-11-19T12:01:04;9.30;99.90
47779;DHT22;33538;48.432;11.350;2023-11-19T12:03:32;9.40;99.90
47779;DHT22;33538;48.432;11.350;2023-11-19T12:05:59;9.40;99.90
47779;DHT22;33538;48.432;11.350;2023-11-19T12:08:28;9.40;99.90
47779;DHT22;33538;48.432;11.350;2023-11-19T12:10:57;9.40;99.90
47779;DHT22;33538;48.432;11.350;2023-11-19T12:13:43;9.50;99.90
47779;DHT22;33538;48.432;11.350;2023-11-19T12:16:12;9.50;99.90
47779;DHT22;33538;48.432;11.350;2023-11-19T12:18:40;9.50;99.90
47779;DHT22;33538;48.432;11.350;2023-11-19T12:21:07;9.50;99.90
47779;DHT22;33538;48.432;11.350;2023-11-19T12:23:43;9.50;99.90
47779;DHT22;33538;48.432;11.350;2023-11-19T12:26:21;9.50;99.90
47779;DHT22;33538;48.432;11.350;2023-11-19T12:29:00;9.60;99.90
47779;DHT22;33538;48.432;11.350;2023-11-19T12:31:27;9.60;99.90
47779;DHT22;33538;48.432;11.350;2023-11-19T12:33:54;9.60;99.90
47779;DHT22;33538;48.432;11.350;2023-11-19T12:36:21;9.60;99.90
47779;DHT22;33538;48.432;11.350;2023-11-19T12:38:49;9.60;99.90
47779;DHT22;33538;48.432;11.350;2023-11-19T12:41:16;9.70;99.90
47779;DHT22;33538;48.432;11.350;2023-11-19T12:43:43;9.70;99.90
47779;DHT22;33538;48.432;11.350;2023-11-19T12:46:20;9.70;99.90
47779;DHT22;33538;48.432;11.350;2023-11-19T12:48:47;9.70;99.90
47779;DHT22;33538;48.432;11.350;2023-11-19T12:51:14;9.70;99.90
47779;DHT22;33538;48.432;11.350;2023-11-19T12:53:49;9.80;99.90
47779;DHT22;33538;48.432;11.350;2023-11-19T12:56:16;9.70;99.90
47779;DHT22;33538;48.432;11.350;2023-11-19T12:58:43;9.80;99.90
47779;DHT22;33538;48.432;11.350;2023-11-19T13:01:16;9.80;99.90
47779;DHT22;33538;48.432;11.350;2023-11-19T13:03:43;9.80;99.90
47779;DHT22;33538;48.432;11.350;2023-11-19T13:06:11;9.80;99.90
47779;DHT22;33538;48.432;11.350;2023-11-19T13:08:39;9.80;99.90
47779;DHT22;33538;48.432;11.350;2023-11-19T13:11:08;9.80;99.90
47779;DHT22;33538;48.432;11.350;2023-11-19T13:13:56;9.80;99.90
47779;DHT22;33538;48.432;11.350;2023-11-19T13:16:22;9.80;99.90
47779;DHT22;33538;48.432;11.350;2023-11-19T13:18:50;9.80;99.90
47779;DHT22;33538;48.432;11.350;2023-11-19T13:21:17;9.80;99.90
47779;DHT22;33538;48.432;11.350;2023-11-19T13:23:43;9.80;99.90
47779;DHT22;33538;48.432;11.350;2023-11-19T13:26:12;9.80;99.90
47779;DHT22;33538;48.432;11.350;2023-11-19T13:28:39;9.80;99.90
47779;DHT22;33538;48.432;11.350;2023-11-19T13:31:06;9.80;99.90
47779;DHT22;33538;48.432;11.350;2023-11-19T13:33:33;9.90;99.90
47779;DHT22;33538;48.432;11.350;2023-11-19T13:36:00;9.90;99.90
47779;DHT22;33538;48.432;11.350;2023-11-19T13:38:27;9.90;99.90
47779;DHT22;33538;48.432;11.350;2023-11-19T13:40:54;9.90;99.90
47779;DHT22;33538;48.432;11.350;2023-11-19T13:43:28;9.90;99.90
47779;DHT22;33538;48.432;11.350;2023-11-19T13:45:55;9.90;99.90
47779;DHT22;33538;48.432;11.350;2023-11-19T13:48:23;9.90;99.90
47779;DHT22;33538;48.432;11.350;2023-11-19T13:50:50;9.90;99.90
47779;DHT22;33538;48.432;11.350;2023-11-19T13:53:17;9.90;99.90
47779;DHT22;33538;48.432;11.350;2023-11-19T13:55:44;9.90;99.90
47779;DHT22;33538;48.432;11.350;2023-11-19T13:58:11;10.00;99.90
47779;DHT22;33538;48.432;11.350;2023-11-19T14:00:39;9.90;99.90
47779;DHT22;33538;48.432;11.350;2023-11-19T14:03:06;9.90;99.90
47779;DHT22;33538;48.432;11.350;2023-11-19T14:05:33;10.00;99.90
47779;DHT22;33538;48.432;11.350;2023-11-19T14:08:03;10.00;99.90
47779;DHT22;33538;48.432;11.350;2023-11-19T14:10:34;10.00;99.90
47779;DHT22;33538;48.432;11.350;2023-11-19T14:13:01;10.00;99.90
47779;DHT22;33538;48.432;11.350;2023-11-19T14:15:28;10.00;99.90
47779;DHT22;33538;48.432;11.350;2023-11-19T14:17:57;10.00;99.90
47779;DHT22;33538;48.432;11.350;2023-11-19T14:20:26;10.00;99.90
47779;DHT22;33538;48.432;11.350;2023-11-19T14:22:55;10.00;99.90
47779;DHT22;33538;48.432;11.350;2023-11-19T14:25:22;10.00;99.90
47779;DHT22;33538;48.432;11.350;2023-11-19T14:27:49;10.00;99.90
47779;DHT22;33538;48.432;11.350;2023-11-19T14:30:15;10.00;99.90
47779;DHT22;33538;48.432;11.350;2023-11-19T14:32:42;10.00;99.90
47779;DHT22;33538;48.432;11.350;2023-11-19T14:35:14;10.00;99.90
47779;DHT22;33538;48.432;11.350;2023-11-19T14:37:41;10.00;99.90
47779;DHT22;33538;48.432;11.350;2023-11-19T14:40:08;10.00;99.90
47779;DHT22;33538;48.432;11.350;2023-11-19T14:42:35;10.00;99.90
47779;DHT22;33538;48.432;11.350;2023-11-19T14:45:03;10.00;99.90
47779;DHT22;33538;48.432;11.350;2023-11-19T14:47:30;10.00;99.90
47779;DHT22;33538;48.432;11.350;2023-11-19T14:49:56;10.00;99.90
47779;DHT22;33538;48.432;11.350;2023-11-19T14:52:24;10.00;99.90
47779;DHT22;33538;48.432;11.350;2023-11-19T14:54:51;10.00;99.90
47779;DHT22;33538;48.432;11.350;2023-11-19T14:57:18;10.00;99.90
47779;DHT22;33538;48.432;11.350;2023-11-19T15:00:05;10.00;99.90
47779;DHT22;33538;48.432;11.350;2023-11-19T15:04:27;10.00;99.90
47779;DHT22;33538;48.432;11.350;2023-11-19T15:06:10;10.00;99.90
47779;DHT22;33538;48.432;11.350;2023-11-19T15:08:50;10.00;99.90
47779;DHT22;33538;48.432;11.350;2023-11-19T15:11:24;10.00;99.90
47779;DHT22;33538;48.432;11.350;2023-11-19T15:13:52;10.00;99.90
47779;DHT22;33538;48.432;11.350;2023-11-19T15:16:20;10.00;99.90
47779;DHT22;33538;48.432;11.350;2023-11-19T15:18:46;10.00;99.90
47779;DHT22;33538;48.432;11.350;2023-11-19T15:21:13;10.00;99.90
47779;DHT22;33538;48.432;11.350;2023-11-19T15:23:42;10.00;99.90
47779;DHT22;33538;48.432;11.350;2023-11-19T15:26:08;10.00;99.90
47779;DHT22;33538;48.432;11.350;2023-11-19T15:28:35;10.00;99.90
47779;DHT22;33538;48.432;11.350;2023-11-19T15:31:03;10.00;99.90
47779;DHT22;33538;48.432;11.350;2023-11-19T15:33:29;10.00;99.90
47779;DHT22;33538;48.432;11.350;2023-11-19T15:35:56;10.00;99.90
47779;DHT22;33538;48.432;11.350;2023-11-19T15:38:23;10.00;99.90
47779;DHT22;33538;48.432;11.350;2023-11-19T15:40:51;10.00;99.90